sensor_id;sensor_type;location;lat;lon;timestamp;P1;durP1;ratioP1;P2;durP2;ratioP2
44169;SDS011;29836;52.286;9.576;2023-11-21T00:01:16;23.10;;;7.40;;
44169;SDS011;29836;52.286;9.576;2023-11-21T00:03:42;24.90;;;7.72;;
44169;SDS011;29836;52.286;9.576;2023-11-21T00:06:07;19.48;;;8.07;;
44169;SDS011;29836;52.286;9.576;2023-11-21T00:08:36;23.52;;;8.48;;
44169;SDS011;29836;52.286;9.576;2023-11-21T00:11:02;20.60;;;6.90;;
44169;SDS011;29836;52.286;9.576;2023-11-21T00:13:30;20.25;;;6.95;;
44169;SDS011;29836;52.286;9.576;2023-11-21T00:15:56;25.38;;;8.32;;
44169;SDS011;29836;52.286;9.576;2023-11-21T00:18:21;24.25;;;7.78;;
44169;SDS011;29836;52.286;9.576;2023-11-21T00:20:47;24.45;;;7.50;;
44169;SDS011;29836;52.286;9.576;2023-11-21T00:23:12;18.02;;;7.45;;
44169;SDS011;29836;52.286;9.576;2023-11-21T00:25:38;25.30;;;7.43;;
44169;SDS011;29836;52.286;9.576;2023-11-21T00:28:04;23.60;;;7.75;;
44169;SDS011;29836;52.286;9.576;2023-11-21T00:30:30;16.65;;;6.38;;
44169;SDS011;29836;52.286;9.576;2023-11-21T00:32:56;24.50;;;7.35;;
44169;SDS011;29836;52.286;9.576;2023-11-21T00:35:22;21.98;;;7.80;;
44169;SDS011;29836;52.286;9.576;2023-11-21T00:37:47;20.20;;;8.52;;
44169;SDS011;29836;52.286;9.576;2023-11-21T00:40:14;16.83;;;7.28;;
44169;SDS011;29836;52.286;9.576;2023-11-21T00:42:40;24.35;;;8.95;;
44169;SDS011;29836;52.286;9.576;2023-11-21T00:45:06;25.70;;;8.18;;
44169;SDS011;29836;52.286;9.576;2023-11-21T00:47:32;19.95;;;7.85;;
44169;SDS011;29836;52.286;9.576;2023-11-21T00:49:58;26.55;;;8.95;;
44169;SDS011;29836;52.286;9.576;2023-11-21T00:52:23;23.77;;;7.85;;
44169;SDS011;29836;52.286;9.576;2023-11-21T00:54:49;25.58;;;8.00;;
44169;SDS011;29836;52.286;9.576;2023-11-21T00:57:15;22.70;;;9.38;;
44169;SDS011;29836;52.286;9.576;2023-11-21T00:59:40;23.02;;;9.82;;
44169;SDS011;29836;52.286;9.576;2023-11-21T01:02:06;21.13;;;9.13;;
44169;SDS011;29836;52.286;9.576;2023-11-21T01:04:35;19.95;;;8.20;;
44169;SDS011;29836;52.286;9.576;2023-11-21T01:07:00;23.88;;;9.60;;
44169;SDS011;29836;52.286;9.576;2023-11-21T01:09:26;27.63;;;9.57;;
44169;SDS011;29836;52.286;9.576;2023-11-21T01:11:52;26.58;;;9.98;;
44169;SDS011;29836;52.286;9.576;2023-11-21T01:14:18;26.40;;;11.10;;
44169;SDS011;29836;52.286;9.576;2023-11-21T01:16:44;27.52;;;10.35;;
44169;SDS011;29836;52.286;9.576;2023-11-21T01:19:09;25.75;;;10.35;;
44169;SDS011;29836;52.286;9.576;2023-11-21T01:21:35;25.42;;;11.18;;
44169;SDS011;29836;52.286;9.576;2023-11-21T01:24:00;23.65;;;9.50;;
44169;SDS011;29836;52.286;9.576;2023-11-21T01:26:26;27.67;;;11.23;;
44169;SDS011;29836;52.286;9.576;2023-11-21T01:28:51;32.38;;;10.60;;
44169;SDS011;29836;52.286;9.576;2023-11-21T01:31:17;27.67;;;10.85;;
44169;SDS011;29836;52.286;9.576;2023-11-21T01:33:42;22.38;;;9.85;;
44169;SDS011;29836;52.286;9.576;2023-11-21T01:36:08;23.52;;;11.15;;
44169;SDS011;29836;52.286;9.576;2023-11-21T01:38:34;31.02;;;10.63;;
44169;SDS011;29836;52.286;9.576;2023-11-21T01:41:00;27.10;;;11.02;;
44169;SDS011;29836;52.286;9.576;2023-11-21T01:43:26;27.08;;;10.68;;
44169;SDS011;29836;52.286;9.576;2023-11-21T01:45:51;30.88;;;11.35;;
44169;SDS011;29836;52.286;9.576;2023-11-21T01:48:21;29.60;;;10.98;;
44169;SDS011;29836;52.286;9.576;2023-11-21T01:50:47;28.98;;;11.15;;
44169;SDS011;29836;52.286;9.576;2023-11-21T01:53:13;36.13;;;12.07;;
44169;SDS011;29836;52.286;9.576;2023-11-21T01:55:40;25.60;;;11.05;;
44169;SDS011;29836;52.286;9.576;2023-11-21T01:58:07;26.10;;;10.68;;
44169;SDS011;29836;52.286;9.576;2023-11-21T02:00:33;40.92;;;11.48;;
44169;SDS011;29836;52.286;9.576;2023-11-21T02:02:59;30.55;;;11.10;;
44169;SDS011;29836;52.286;9.576;2023-11-21T02:05:24;31.67;;;12.73;;
44169;SDS011;29836;52.286;9.576;2023-11-21T02:07:51;32.03;;;11.98;;
44169;SDS011;29836;52.286;9.576;2023-11-21T02:10:17;29.48;;;11.75;;
44169;SDS011;29836;52.286;9.576;2023-11-21T02:12:47;32.25;;;11.48;;
44169;SDS011;29836;52.286;9.576;2023-11-21T02:15:15;34.20;;;11.75;;
44169;SDS011;29836;52.286;9.576;2023-11-21T02:17:48;32.60;;;11.90;;
44169;SDS011;29836;52.286;9.576;2023-11-21T02:20:18;24.35;;;10.32;;
44169;SDS011;29836;52.286;9.576;2023-11-21T02:22:51;27.80;;;11.45;;
44169;SDS011;29836;52.286;9.576;2023-11-21T02:25:22;30.13;;;11.98;;
44169;SDS011;29836;52.286;9.576;2023-11-21T02:27:49;29.30;;;12.25;;
44169;SDS011;29836;52.286;9.576;2023-11-21T02:30:14;28.98;;;11.73;;
44169;SDS011;29836;52.286;9.576;2023-11-21T02:32:41;26.15;;;10.77;;
44169;SDS011;29836;52.286;9.576;2023-11-21T02:35:07;37.05;;;12.40;;
44169;SDS011;29836;52.286;9.576;2023-11-21T02:37:34;30.95;;;11.98;;
44169;SDS011;29836;52.286;9.576;2023-11-21T02:40:00;27.83;;;12.00;;
44169;SDS011;29836;52.286;9.576;2023-11-21T02:42:29;37.10;;;11.80;;
44169;SDS011;29836;52.286;9.576;2023-11-21T02:44:54;27.95;;;11.55;;
44169;SDS011;29836;52.286;9.576;2023-11-21T02:47:20;39.88;;;12.55;;
44169;SDS011;29836;52.286;9.576;2023-11-21T02:49:45;33.95;;;11.30;;
44169;SDS011;29836;52.286;9.576;2023-11-21T02:52:11;32.55;;;11.15;;
44169;SDS011;29836;52.286;9.576;2023-11-21T02:54:36;31.80;;;11.02;;
44169;SDS011;29836;52.286;9.576;2023-11-21T02:57:02;30.42;;;12.80;;
44169;SDS011;29836;52.286;9.576;2023-11-21T02:59:28;31.42;;;11.32;;
44169;SDS011;29836;52.286;9.576;2023-11-21T03:01:53;38.17;;;14.15;;
44169;SDS011;29836;52.286;9.576;2023-11-21T03:04:19;44.35;;;19.27;;
44169;SDS011;29836;52.286;9.576;2023-11-21T03:06:44;36.63;;;15.70;;
44169;SDS011;29836;52.286;9.576;2023-11-21T03:09:10;36.63;;;14.18;;
44169;SDS011;29836;52.286;9.576;2023-11-21T03:11:38;35.00;;;12.20;;
44169;SDS011;29836;52.286;9.576;2023-11-21T03:14:04;35.83;;;13.70;;
44169;SDS011;29836;52.286;9.576;2023-11-21T03:16:30;35.10;;;13.68;;
44169;SDS011;29836;52.286;9.576;2023-11-21T03:18:57;37.05;;;13.68;;
44169;SDS011;29836;52.286;9.576;2023-11-21T03:21:22;36.28;;;13.68;;
44169;SDS011;29836;52.286;9.576;2023-11-21T03:23:48;33.83;;;13.75;;
44169;SDS011;29836;52.286;9.576;2023-11-21T03:26:13;39.17;;;12.98;;
44169;SDS011;29836;52.286;9.576;2023-11-21T03:28:39;37.08;;;12.98;;
44169;SDS011;29836;52.286;9.576;2023-11-21T03:31:04;33.83;;;12.32;;
44169;SDS011;29836;52.286;9.576;2023-11-21T03:33:31;32.88;;;11.93;;
44169;SDS011;29836;52.286;9.576;2023-11-21T03:35:57;37.47;;;12.30;;
44169;SDS011;29836;52.286;9.576;2023-11-21T03:38:22;32.60;;;12.60;;
44169;SDS011;29836;52.286;9.576;2023-11-21T03:40:48;31.15;;;11.45;;
44169;SDS011;29836;52.286;9.576;2023-11-21T03:43:14;41.63;;;13.25;;
44169;SDS011;29836;52.286;9.576;2023-11-21T03:45:39;41.25;;;13.70;;
44169;SDS011;29836;52.286;9.576;2023-11-21T03:48:06;27.80;;;12.15;;
44169;SDS011;29836;52.286;9.576;2023-11-21T03:50:31;28.95;;;12.68;;
44169;SDS011;29836;52.286;9.576;2023-11-21T03:52:57;31.63;;;12.25;;
44169;SDS011;29836;52.286;9.576;2023-11-21T03:55:23;33.17;;;13.30;;
44169;SDS011;29836;52.286;9.576;2023-11-21T03:57:49;33.92;;;12.80;;
44169;SDS011;29836;52.286;9.576;2023-11-21T04:00:16;29.45;;;12.02;;
44169;SDS011;29836;52.286;9.576;2023-11-21T04:02:42;36.85;;;14.95;;
44169;SDS011;29836;52.286;9.576;2023-11-21T04:05:08;41.92;;;15.00;;
44169;SDS011;29836;52.286;9.576;2023-11-21T04:07:34;35.97;;;14.85;;
44169;SDS011;29836;52.286;9.576;2023-11-21T04:10:00;36.92;;;14.25;;
44169;SDS011;29836;52.286;9.576;2023-11-21T04:12:25;37.38;;;14.57;;
44169;SDS011;29836;52.286;9.576;2023-11-21T04:14:51;31.13;;;13.65;;
44169;SDS011;29836;52.286;9.576;2023-11-21T04:17:19;32.40;;;12.98;;
44169;SDS011;29836;52.286;9.576;2023-11-21T04:19:45;35.10;;;13.02;;
44169;SDS011;29836;52.286;9.576;2023-11-21T04:22:11;36.45;;;14.48;;
44169;SDS011;29836;52.286;9.576;2023-11-21T04:24:37;37.88;;;13.35;;
44169;SDS011;29836;52.286;9.576;2023-11-21T04:27:02;36.67;;;12.73;;
44169;SDS011;29836;52.286;9.576;2023-11-21T04:29:28;36.35;;;13.73;;
44169;SDS011;29836;52.286;9.576;2023-11-21T04:31:53;37.83;;;14.52;;
44169;SDS011;29836;52.286;9.576;2023-11-21T04:34:19;31.92;;;13.73;;
44169;SDS011;29836;52.286;9.576;2023-11-21T04:36:44;36.25;;;13.93;;
44169;SDS011;29836;52.286;9.576;2023-11-21T04:39:10;40.10;;;13.50;;
44169;SDS011;29836;52.286;9.576;2023-11-21T04:41:36;35.00;;;12.68;;
44169;SDS011;29836;52.286;9.576;2023-11-21T04:44:04;31.40;;;11.85;;
44169;SDS011;29836;52.286;9.576;2023-11-21T04:46:30;35.75;;;13.02;;
44169;SDS011;29836;52.286;9.576;2023-11-21T04:48:56;39.28;;;13.48;;
44169;SDS011;29836;52.286;9.576;2023-11-21T04:51:23;30.27;;;12.70;;
44169;SDS011;29836;52.286;9.576;2023-11-21T04:53:48;32.08;;;12.50;;
44169;SDS011;29836;52.286;9.576;2023-11-21T04:56:14;32.55;;;11.85;;
44169;SDS011;29836;52.286;9.576;2023-11-21T04:58:41;38.35;;;12.77;;
44169;SDS011;29836;52.286;9.576;2023-11-21T05:01:09;32.08;;;12.15;;
44169;SDS011;29836;52.286;9.576;2023-11-21T05:03:35;32.33;;;12.60;;
44169;SDS011;29836;52.286;9.576;2023-11-21T05:06:00;28.40;;;11.50;;
44169;SDS011;29836;52.286;9.576;2023-11-21T05:08:26;26.90;;;10.82;;
44169;SDS011;29836;52.286;9.576;2023-11-21T05:10:52;28.73;;;10.45;;
44169;SDS011;29836;52.286;9.576;2023-11-21T05:13:18;21.92;;;9.73;;
44169;SDS011;29836;52.286;9.576;2023-11-21T05:15:45;25.35;;;10.57;;
44169;SDS011;29836;52.286;9.576;2023-11-21T05:18:10;27.63;;;10.88;;
44169;SDS011;29836;52.286;9.576;2023-11-21T05:20:38;24.45;;;9.57;;
44169;SDS011;29836;52.286;9.576;2023-11-21T05:23:05;20.73;;;8.80;;
44169;SDS011;29836;52.286;9.576;2023-11-21T05:25:31;26.95;;;9.30;;
44169;SDS011;29836;52.286;9.576;2023-11-21T05:27:57;24.90;;;9.20;;
44169;SDS011;29836;52.286;9.576;2023-11-21T05:30:26;27.38;;;9.25;;
44169;SDS011;29836;52.286;9.576;2023-11-21T05:32:51;27.45;;;9.25;;
44169;SDS011;29836;52.286;9.576;2023-11-21T05:35:17;22.05;;;9.45;;
44169;SDS011;29836;52.286;9.576;2023-11-21T05:37:43;23.00;;;9.32;;
44169;SDS011;29836;52.286;9.576;2023-11-21T05:40:09;22.38;;;7.88;;
44169;SDS011;29836;52.286;9.576;2023-11-21T05:42:35;20.42;;;8.27;;
44169;SDS011;29836;52.286;9.576;2023-11-21T05:45:03;19.00;;;8.00;;
44169;SDS011;29836;52.286;9.576;2023-11-21T05:47:39;22.02;;;8.77;;
44169;SDS011;29836;52.286;9.576;2023-11-21T05:50:07;18.60;;;8.05;;
44169;SDS011;29836;52.286;9.576;2023-11-21T05:52:37;19.42;;;7.97;;
44169;SDS011;29836;52.286;9.576;2023-11-21T05:55:04;18.48;;;7.65;;
44169;SDS011;29836;52.286;9.576;2023-11-21T05:57:32;18.45;;;8.52;;
44169;SDS011;29836;52.286;9.576;2023-11-21T06:00:11;20.58;;;8.18;;
44169;SDS011;29836;52.286;9.576;2023-11-21T06:02:48;19.63;;;7.88;;
44169;SDS011;29836;52.286;9.576;2023-11-21T06:05:23;31.25;;;8.82;;
44169;SDS011;29836;52.286;9.576;2023-11-21T06:07:50;23.55;;;9.00;;
44169;SDS011;29836;52.286;9.576;2023-11-21T06:10:16;21.10;;;8.65;;
44169;SDS011;29836;52.286;9.576;2023-11-21T06:12:42;24.10;;;9.13;;
44169;SDS011;29836;52.286;9.576;2023-11-21T06:15:09;22.27;;;9.02;;
44169;SDS011;29836;52.286;9.576;2023-11-21T06:17:38;20.77;;;8.63;;
44169;SDS011;29836;52.286;9.576;2023-11-21T06:20:05;25.05;;;9.32;;
44169;SDS011;29836;52.286;9.576;2023-11-21T06:22:39;24.20;;;9.20;;
44169;SDS011;29836;52.286;9.576;2023-11-21T06:25:08;24.73;;;8.98;;
44169;SDS011;29836;52.286;9.576;2023-11-21T06:27:35;24.65;;;8.93;;
44169;SDS011;29836;52.286;9.576;2023-11-21T06:30:03;24.67;;;8.38;;
44169;SDS011;29836;52.286;9.576;2023-11-21T06:32:29;24.67;;;9.10;;
44169;SDS011;29836;52.286;9.576;2023-11-21T06:34:55;24.77;;;8.40;;
44169;SDS011;29836;52.286;9.576;2023-11-21T06:37:24;26.58;;;9.15;;
44169;SDS011;29836;52.286;9.576;2023-11-21T06:39:50;20.92;;;8.02;;
44169;SDS011;29836;52.286;9.576;2023-11-21T06:42:17;22.38;;;7.65;;
44169;SDS011;29836;52.286;9.576;2023-11-21T06:44:44;21.90;;;7.47;;
44169;SDS011;29836;52.286;9.576;2023-11-21T06:47:10;21.45;;;8.00;;
44169;SDS011;29836;52.286;9.576;2023-11-21T06:49:35;22.42;;;8.68;;
44169;SDS011;29836;52.286;9.576;2023-11-21T06:52:01;19.55;;;8.70;;
44169;SDS011;29836;52.286;9.576;2023-11-21T06:54:28;20.05;;;7.68;;
44169;SDS011;29836;52.286;9.576;2023-11-21T06:56:54;29.48;;;9.07;;
44169;SDS011;29836;52.286;9.576;2023-11-21T06:59:21;22.30;;;8.18;;
44169;SDS011;29836;52.286;9.576;2023-11-21T07:01:47;23.58;;;7.88;;
44169;SDS011;29836;52.286;9.576;2023-11-21T07:04:15;25.58;;;8.80;;
44169;SDS011;29836;52.286;9.576;2023-11-21T07:06:41;25.25;;;9.05;;
44169;SDS011;29836;52.286;9.576;2023-11-21T07:09:06;26.58;;;10.27;;
44169;SDS011;29836;52.286;9.576;2023-11-21T07:11:33;29.05;;;9.45;;
44169;SDS011;29836;52.286;9.576;2023-11-21T07:13:59;22.75;;;8.23;;
44169;SDS011;29836;52.286;9.576;2023-11-21T07:16:27;24.17;;;9.00;;
44169;SDS011;29836;52.286;9.576;2023-11-21T07:18:55;25.77;;;8.13;;
44169;SDS011;29836;52.286;9.576;2023-11-21T07:21:21;22.80;;;8.38;;
44169;SDS011;29836;52.286;9.576;2023-11-21T07:23:46;17.58;;;7.18;;
44169;SDS011;29836;52.286;9.576;2023-11-21T07:26:12;29.42;;;8.50;;
44169;SDS011;29836;52.286;9.576;2023-11-21T07:28:37;21.60;;;7.80;;
44169;SDS011;29836;52.286;9.576;2023-11-21T07:31:03;16.65;;;6.75;;
44169;SDS011;29836;52.286;9.576;2023-11-21T07:33:28;14.30;;;6.55;;
44169;SDS011;29836;52.286;9.576;2023-11-21T07:35:54;14.48;;;6.20;;
44169;SDS011;29836;52.286;9.576;2023-11-21T07:38:19;17.25;;;6.22;;
44169;SDS011;29836;52.286;9.576;2023-11-21T07:40:45;17.83;;;6.68;;
44169;SDS011;29836;52.286;9.576;2023-11-21T07:43:11;18.52;;;6.93;;
44169;SDS011;29836;52.286;9.576;2023-11-21T07:45:36;13.02;;;5.45;;
44169;SDS011;29836;52.286;9.576;2023-11-21T07:48:02;13.57;;;5.72;;
44169;SDS011;29836;52.286;9.576;2023-11-21T07:50:29;14.15;;;4.85;;
44169;SDS011;29836;52.286;9.576;2023-11-21T07:52:55;8.32;;;4.80;;
44169;SDS011;29836;52.286;9.576;2023-11-21T07:55:22;11.65;;;4.30;;
44169;SDS011;29836;52.286;9.576;2023-11-21T07:57:48;8.80;;;3.97;;
44169;SDS011;29836;52.286;9.576;2023-11-21T08:00:13;9.77;;;3.80;;
44169;SDS011;29836;52.286;9.576;2023-11-21T08:02:40;8.93;;;3.90;;
44169;SDS011;29836;52.286;9.576;2023-11-21T08:05:11;8.85;;;3.80;;
44169;SDS011;29836;52.286;9.576;2023-11-21T08:07:37;7.97;;;2.72;;
44169;SDS011;29836;52.286;9.576;2023-11-21T08:10:03;8.00;;;3.47;;
44169;SDS011;29836;52.286;9.576;2023-11-21T08:12:32;7.90;;;3.97;;
44169;SDS011;29836;52.286;9.576;2023-11-21T08:14:57;8.73;;;2.63;;
44169;SDS011;29836;52.286;9.576;2023-11-21T08:17:23;7.45;;;3.58;;
44169;SDS011;29836;52.286;9.576;2023-11-21T08:19:48;7.85;;;3.40;;
44169;SDS011;29836;52.286;9.576;2023-11-21T08:22:16;7.90;;;3.53;;
44169;SDS011;29836;52.286;9.576;2023-11-21T08:24:43;8.38;;;3.33;;
44169;SDS011;29836;52.286;9.576;2023-11-21T08:27:09;6.60;;;3.10;;
44169;SDS011;29836;52.286;9.576;2023-11-21T08:29:35;6.35;;;3.33;;
44169;SDS011;29836;52.286;9.576;2023-11-21T08:32:01;6.90;;;2.70;;
44169;SDS011;29836;52.286;9.576;2023-11-21T08:34:27;8.95;;;3.85;;
44169;SDS011;29836;52.286;9.576;2023-11-21T08:36:53;8.18;;;3.58;;
44169;SDS011;29836;52.286;9.576;2023-11-21T08:39:19;13.45;;;4.93;;
44169;SDS011;29836;52.286;9.576;2023-11-21T08:41:45;8.43;;;3.78;;
44169;SDS011;29836;52.286;9.576;2023-11-21T08:44:10;10.18;;;4.57;;
44169;SDS011;29836;52.286;9.576;2023-11-21T08:46:36;10.68;;;5.05;;
44169;SDS011;29836;52.286;9.576;2023-11-21T08:49:04;12.82;;;5.50;;
44169;SDS011;29836;52.286;9.576;2023-11-21T08:51:29;12.60;;;5.57;;
44169;SDS011;29836;52.286;9.576;2023-11-21T08:53:55;12.27;;;5.55;;
44169;SDS011;29836;52.286;9.576;2023-11-21T08:56:24;12.38;;;6.68;;
44169;SDS011;29836;52.286;9.576;2023-11-21T08:58:50;14.10;;;6.07;;
44169;SDS011;29836;52.286;9.576;2023-11-21T09:01:15;13.57;;;6.00;;
44169;SDS011;29836;52.286;9.576;2023-11-21T09:03:42;12.57;;;6.22;;
44169;SDS011;29836;52.286;9.576;2023-11-21T09:06:08;15.18;;;6.38;;
44169;SDS011;29836;52.286;9.576;2023-11-21T09:08:34;13.80;;;6.15;;
44169;SDS011;29836;52.286;9.576;2023-11-21T09:11:00;17.20;;;6.88;;
44169;SDS011;29836;52.286;9.576;2023-11-21T09:13:25;14.73;;;6.70;;
44169;SDS011;29836;52.286;9.576;2023-11-21T09:15:51;13.75;;;7.03;;
44169;SDS011;29836;52.286;9.576;2023-11-21T09:18:17;16.98;;;7.30;;
44169;SDS011;29836;52.286;9.576;2023-11-21T09:20:42;12.50;;;5.97;;
44169;SDS011;29836;52.286;9.576;2023-11-21T09:23:09;17.77;;;7.40;;
44169;SDS011;29836;52.286;9.576;2023-11-21T09:25:34;17.42;;;8.07;;
44169;SDS011;29836;52.286;9.576;2023-11-21T09:28:02;19.52;;;8.73;;
44169;SDS011;29836;52.286;9.576;2023-11-21T09:30:32;16.35;;;7.38;;
44169;SDS011;29836;52.286;9.576;2023-11-21T09:32:58;22.05;;;7.72;;
44169;SDS011;29836;52.286;9.576;2023-11-21T09:35:24;15.65;;;7.15;;
44169;SDS011;29836;52.286;9.576;2023-11-21T09:37:50;16.00;;;7.43;;
44169;SDS011;29836;52.286;9.576;2023-11-21T09:40:17;16.70;;;6.80;;
44169;SDS011;29836;52.286;9.576;2023-11-21T09:45:26;17.75;;;8.20;;
44169;SDS011;29836;52.286;9.576;2023-11-21T09:47:54;16.95;;;7.75;;
44169;SDS011;29836;52.286;9.576;2023-11-21T09:50:23;17.67;;;7.38;;
44169;SDS011;29836;52.286;9.576;2023-11-21T09:58:02;13.43;;;7.00;;
44169;SDS011;29836;52.286;9.576;2023-11-21T10:00:28;14.88;;;7.05;;
44169;SDS011;29836;52.286;9.576;2023-11-21T10:02:58;13.77;;;7.07;;
44169;SDS011;29836;52.286;9.576;2023-11-21T10:05:24;14.18;;;7.03;;
44169;SDS011;29836;52.286;9.576;2023-11-21T10:07:50;12.63;;;5.70;;
44169;SDS011;29836;52.286;9.576;2023-11-21T10:10:17;15.75;;;6.00;;
44169;SDS011;29836;52.286;9.576;2023-11-21T10:12:44;12.55;;;6.25;;
44169;SDS011;29836;52.286;9.576;2023-11-21T10:15:23;11.13;;;6.10;;
44169;SDS011;29836;52.286;9.576;2023-11-21T10:17:52;11.77;;;5.85;;
44169;SDS011;29836;52.286;9.576;2023-11-21T10:20:19;11.77;;;5.40;;
44169;SDS011;29836;52.286;9.576;2023-11-21T10:22:45;10.98;;;5.15;;
44169;SDS011;29836;52.286;9.576;2023-11-21T10:25:11;12.30;;;5.60;;
44169;SDS011;29836;52.286;9.576;2023-11-21T10:27:39;9.77;;;5.55;;
44169;SDS011;29836;52.286;9.576;2023-11-21T10:30:06;11.85;;;5.53;;
44169;SDS011;29836;52.286;9.576;2023-11-21T10:32:37;9.90;;;5.00;;
44169;SDS011;29836;52.286;9.576;2023-11-21T10:35:03;9.77;;;5.10;;
44169;SDS011;29836;52.286;9.576;2023-11-21T10:37:35;11.18;;;4.95;;
44169;SDS011;29836;52.286;9.576;2023-11-21T10:40:11;9.98;;;4.28;;
44169;SDS011;29836;52.286;9.576;2023-11-21T10:42:37;13.57;;;5.07;;
44169;SDS011;29836;52.286;9.576;2023-11-21T10:45:04;7.78;;;4.55;;
44169;SDS011;29836;52.286;9.576;2023-11-21T10:47:37;10.02;;;5.07;;
44169;SDS011;29836;52.286;9.576;2023-11-21T10:50:04;9.15;;;4.53;;
44169;SDS011;29836;52.286;9.576;2023-11-21T10:52:30;11.45;;;5.32;;
44169;SDS011;29836;52.286;9.576;2023-11-21T10:54:55;8.43;;;4.43;;
44169;SDS011;29836;52.286;9.576;2023-11-21T10:57:23;11.02;;;4.78;;
44169;SDS011;29836;52.286;9.576;2023-11-21T10:59:50;9.00;;;4.65;;
44169;SDS011;29836;52.286;9.576;2023-11-21T11:05:00;7.25;;;4.32;;
44169;SDS011;29836;52.286;9.576;2023-11-21T11:07:26;10.38;;;5.18;;
44169;SDS011;29836;52.286;9.576;2023-11-21T11:09:53;8.40;;;4.43;;
44169;SDS011;29836;52.286;9.576;2023-11-21T11:12:20;11.32;;;4.28;;
44169;SDS011;29836;52.286;9.576;2023-11-21T11:14:46;7.57;;;4.10;;
44169;SDS011;29836;52.286;9.576;2023-11-21T11:17:12;5.95;;;3.13;;
44169;SDS011;29836;52.286;9.576;2023-11-21T11:19:38;6.75;;;3.50;;
44169;SDS011;29836;52.286;9.576;2023-11-21T11:30:38;7.47;;;3.28;;
44169;SDS011;29836;52.286;9.576;2023-11-21T11:36:12;6.07;;;3.67;;
44169;SDS011;29836;52.286;9.576;2023-11-21T11:38:51;6.40;;;3.10;;
44169;SDS011;29836;52.286;9.576;2023-11-21T11:41:28;6.65;;;3.55;;
44169;SDS011;29836;52.286;9.576;2023-11-21T11:44:00;6.18;;;2.97;;
44169;SDS011;29836;52.286;9.576;2023-11-21T11:46:42;5.78;;;3.33;;
44169;SDS011;29836;52.286;9.576;2023-11-21T11:49:10;9.43;;;3.33;;
44169;SDS011;29836;52.286;9.576;2023-11-21T11:51:36;6.82;;;3.60;;
44169;SDS011;29836;52.286;9.576;2023-11-21T11:54:02;6.45;;;3.50;;
44169;SDS011;29836;52.286;9.576;2023-11-21T11:56:29;6.60;;;3.40;;
44169;SDS011;29836;52.286;9.576;2023-11-21T11:58:59;5.47;;;3.38;;
44169;SDS011;29836;52.286;9.576;2023-11-21T12:01:27;9.40;;;3.95;;
44169;SDS011;29836;52.286;9.576;2023-11-21T12:06:59;6.43;;;3.10;;
44169;SDS011;29836;52.286;9.576;2023-11-21T12:09:27;8.68;;;3.22;;
44169;SDS011;29836;52.286;9.576;2023-11-21T12:11:55;7.05;;;3.30;;
44169;SDS011;29836;52.286;9.576;2023-11-21T12:14:23;9.35;;;3.90;;
44169;SDS011;29836;52.286;9.576;2023-11-21T12:16:50;6.15;;;3.30;;
44169;SDS011;29836;52.286;9.576;2023-11-21T12:19:16;6.35;;;3.35;;
44169;SDS011;29836;52.286;9.576;2023-11-21T12:21:43;9.80;;;4.07;;
44169;SDS011;29836;52.286;9.576;2023-11-21T12:24:09;7.22;;;3.55;;
44169;SDS011;29836;52.286;9.576;2023-11-21T12:26:38;6.90;;;3.72;;
44169;SDS011;29836;52.286;9.576;2023-11-21T12:29:04;6.80;;;3.35;;
44169;SDS011;29836;52.286;9.576;2023-11-21T12:31:32;9.77;;;3.75;;
44169;SDS011;29836;52.286;9.576;2023-11-21T12:33:59;7.57;;;3.45;;
44169;SDS011;29836;52.286;9.576;2023-11-21T12:36:25;6.18;;;3.38;;
44169;SDS011;29836;52.286;9.576;2023-11-21T12:38:51;6.72;;;3.25;;
44169;SDS011;29836;52.286;9.576;2023-11-21T12:41:16;6.25;;;3.03;;
44169;SDS011;29836;52.286;9.576;2023-11-21T12:43:42;5.22;;;2.92;;
44169;SDS011;29836;52.286;9.576;2023-11-21T12:46:09;7.80;;;3.47;;
44169;SDS011;29836;52.286;9.576;2023-11-21T12:48:39;7.20;;;3.15;;
44169;SDS011;29836;52.286;9.576;2023-11-21T12:51:07;6.45;;;3.10;;
44169;SDS011;29836;52.286;9.576;2023-11-21T12:53:34;5.47;;;2.88;;
44169;SDS011;29836;52.286;9.576;2023-11-21T12:56:11;7.43;;;2.80;;
44169;SDS011;29836;52.286;9.576;2023-11-21T12:58:37;4.72;;;2.38;;
44169;SDS011;29836;52.286;9.576;2023-11-21T13:01:10;6.25;;;3.22;;
44169;SDS011;29836;52.286;9.576;2023-11-21T13:03:37;6.55;;;3.15;;
44169;SDS011;29836;52.286;9.576;2023-11-21T13:06:04;4.35;;;2.80;;
44169;SDS011;29836;52.286;9.576;2023-11-21T13:08:30;4.63;;;2.67;;
44169;SDS011;29836;52.286;9.576;2023-11-21T13:10:58;4.90;;;2.90;;
44169;SDS011;29836;52.286;9.576;2023-11-21T13:13:24;5.25;;;2.65;;
44169;SDS011;29836;52.286;9.576;2023-11-21T13:15:53;4.53;;;2.60;;
44169;SDS011;29836;52.286;9.576;2023-11-21T13:18:25;6.10;;;3.20;;
44169;SDS011;29836;52.286;9.576;2023-11-21T13:20:52;6.80;;;3.22;;
44169;SDS011;29836;52.286;9.576;2023-11-21T13:23:19;6.82;;;3.05;;
44169;SDS011;29836;52.286;9.576;2023-11-21T13:25:45;9.65;;;3.60;;
44169;SDS011;29836;52.286;9.576;2023-11-21T13:28:12;6.43;;;3.42;;
44169;SDS011;29836;52.286;9.576;2023-11-21T13:30:40;6.65;;;3.58;;
44169;SDS011;29836;52.286;9.576;2023-11-21T13:33:06;8.27;;;4.05;;
44169;SDS011;29836;52.286;9.576;2023-11-21T13:35:33;6.53;;;3.40;;
44169;SDS011;29836;52.286;9.576;2023-11-21T13:38:07;4.90;;;2.95;;
44169;SDS011;29836;52.286;9.576;2023-11-21T13:40:34;8.30;;;3.35;;
44169;SDS011;29836;52.286;9.576;2023-11-21T13:43:11;5.32;;;3.13;;
44169;SDS011;29836;52.286;9.576;2023-11-21T13:45:41;6.60;;;3.40;;
44169;SDS011;29836;52.286;9.576;2023-11-21T13:48:08;7.28;;;3.60;;
44169;SDS011;29836;52.286;9.576;2023-11-21T13:50:41;10.10;;;4.43;;
44169;SDS011;29836;52.286;9.576;2023-11-21T13:53:21;5.75;;;3.92;;
44169;SDS011;29836;52.286;9.576;2023-11-21T13:55:50;5.93;;;3.83;;
44169;SDS011;29836;52.286;9.576;2023-11-21T13:58:19;11.73;;;4.50;;
44169;SDS011;29836;52.286;9.576;2023-11-21T14:00:49;6.35;;;3.80;;
44169;SDS011;29836;52.286;9.576;2023-11-21T14:03:22;5.95;;;3.33;;
44169;SDS011;29836;52.286;9.576;2023-11-21T14:06:03;7.38;;;3.50;;
44169;SDS011;29836;52.286;9.576;2023-11-21T14:08:36;8.80;;;4.43;;
44169;SDS011;29836;52.286;9.576;2023-11-21T14:11:02;6.80;;;3.30;;
44169;SDS011;29836;52.286;9.576;2023-11-21T14:13:29;6.55;;;3.80;;
44169;SDS011;29836;52.286;9.576;2023-11-21T14:15:55;6.97;;;3.55;;
44169;SDS011;29836;52.286;9.576;2023-11-21T14:18:27;6.20;;;3.42;;
44169;SDS011;29836;52.286;9.576;2023-11-21T14:21:01;6.55;;;3.40;;
44169;SDS011;29836;52.286;9.576;2023-11-21T14:23:26;8.18;;;3.50;;
44169;SDS011;29836;52.286;9.576;2023-11-21T14:25:53;4.82;;;3.40;;
44169;SDS011;29836;52.286;9.576;2023-11-21T14:28:19;6.85;;;3.67;;
44169;SDS011;29836;52.286;9.576;2023-11-21T14:30:45;6.22;;;3.67;;
44169;SDS011;29836;52.286;9.576;2023-11-21T14:33:12;4.82;;;2.78;;
44169;SDS011;29836;52.286;9.576;2023-11-21T14:35:37;7.20;;;3.55;;
44169;SDS011;29836;52.286;9.576;2023-11-21T14:38:03;6.28;;;3.30;;
44169;SDS011;29836;52.286;9.576;2023-11-21T14:40:33;5.78;;;3.10;;
44169;SDS011;29836;52.286;9.576;2023-11-21T14:43:00;8.48;;;3.58;;
44169;SDS011;29836;52.286;9.576;2023-11-21T14:45:31;5.75;;;3.20;;
44169;SDS011;29836;52.286;9.576;2023-11-21T14:47:57;6.55;;;3.65;;
44169;SDS011;29836;52.286;9.576;2023-11-21T14:50:41;5.93;;;3.42;;
44169;SDS011;29836;52.286;9.576;2023-11-21T14:53:08;6.80;;;3.60;;
44169;SDS011;29836;52.286;9.576;2023-11-21T14:55:37;8.73;;;3.30;;
44169;SDS011;29836;52.286;9.576;2023-11-21T14:58:20;7.18;;;3.75;;
44169;SDS011;29836;52.286;9.576;2023-11-21T15:00:52;6.00;;;3.53;;